This is the latest recevied weather packets stored in our database for station/object N4AN. If no packets are shown the sender has not sent any weather packets the latest 10 day(s).
| Time | Temp. | Humidity | Pressure | Rain* | Wind** | Luminosity | Snow |
|---|---|---|---|---|---|---|---|
| 1777930798 | 22.78° C | 92% | 1008 hPa | 0 mm | - | - | - |
| 1777930498 | 22.78° C | 92% | 1008 hPa | 0 mm | - | - | - |
| 1777930197 | 22.78° C | 92% | 1007.8 hPa | 0 mm | - | - | - |
| 1777929897 | 22.78° C | 92% | 1007.9 hPa | 0 mm | - | - | - |
| 1777929597 | 22.78° C | 92% | 1008 hPa | 0 mm | - | - | - |
| 1777929296 | 22.78° C | 92% | 1008.1 hPa | 1.02 mm | - | - | - |
| 1777928996 | 22.78° C | 92% | 1008.2 hPa | 1.27 mm | - | - | - |
| 1777928696 | 22.78° C | 93% | 1008.2 hPa | 1.27 mm | - | - | - |
| 1777928396 | 22.22° C | 92% | 1008.2 hPa | 1.27 mm | - | - | - |
| 1777928095 | 22.22° C | 92% | 1008.3 hPa | 2.29 mm | - | - | - |
| 1777927795 | 22.22° C | 92% | 1008.3 hPa | 3.3 mm | - | - | - |
| 1777927495 | 22.78° C | 92% | 1008.2 hPa | 2.29 mm | - | - | - |
| 1777927194 | 22.78° C | 92% | 1008.4 hPa | 1.02 mm | - | - | - |
| 1777926894 | 22.78° C | 92% | 1008.4 hPa | 1.02 mm | - | - | - |
| 1777926594 | 22.78° C | 92% | 1008.5 hPa | 1.02 mm | - | - | - |
| 1777926294 | 22.78° C | 92% | 1008.4 hPa | 1.02 mm | - | - | - |
| 1777925991 | 22.78° C | 92% | 1008.5 hPa | 1.27 mm | - | - | - |
| 1777925690 | 22.22° C | 92% | 1008.5 hPa | 2.54 mm | - | - | - |
| 1777925390 | 22.22° C | 91% | 1008.6 hPa | 8.89 mm | - | - | - |
| 1777924789 | 22.78° C | 91% | 1008.7 hPa | 17.02 mm | - | - | - |
| 1777924489 | 22.78° C | 91% | 1008.6 hPa | 8.13 mm | - | - | - |
| 1777924188 | 22.78° C | 91% | 1008.6 hPa | 18.03 mm | - | - | - |
| 1777923888 | 22.78° C | 91% | 1008.8 hPa | 82.55 mm | - | - | - |
| 1777923635 | 22.78° C | 91% | 1008.6 hPa | 46.48 mm | - | - | - |
| 1777923587 | 22.78° C | 91% | 1008.6 hPa | 46.48 mm | - | - | - |
* Rain latest hour (hover to see other rain measurements)
** Current wind speed in m/s (hover to see current wind gust speed)